Time;durP1;ratioP1;P1;durP2;ratioP2;P2;SDS_P1;SDS_P2;PMS_P1;PMS_P2;Temp;Humidity;BMP_temperature;BMP_pressure;BME280_temperature;BME280_humidity;BME280_pressure;Samples;Min_cycle;Max_cycle;Signal;HPM_P1;HPM_P2
2023/03/15 00:01:53;;;;;;;7.90;2.88;;;;;;;;;;5062161;28;20120;-48
2023/03/15 00:04:20;;;;;;;9.23;2.78;;;;;;;;;;5062122;28;20020;-51
2023/03/15 00:06:45;;;;;;;5.40;2.58;;;;;;;;;;5061578;28;20029;-51
2023/03/15 00:09:10;;;;;;;5.28;2.30;;;;;;;;;;5060426;28;20019;-53
2023/03/15 00:11:35;;;;;;;4.93;2.95;;;;;;;;;;5062017;28;20650;-52
2023/03/15 00:14:01;;;;;;;7.00;3.63;;;;;;;;;;5063109;28;20036;-53
2023/03/15 00:16:26;;;;;;;8.68;3.70;;;;;;;;;;5063659;28;20052;-55
2023/03/15 00:18:55;;;;;;;8.73;4.13;;;;;;;;;;5063283;28;20029;-52
2023/03/15 00:21:20;;;;;;;11.10;4.47;;;;;;;;;;5063337;28;20625;-51
2023/03/15 00:23:45;;;;;;;9.27;4.18;;;;;;;;;;5063390;28;20350;-54
2023/03/15 00:26:11;;;;;;;7.95;4.55;;;;;;;;;;5063581;28;20029;-56
2023/03/15 00:28:37;;;;;;;8.25;4.15;;;;;;;;;;5063535;28;20074;-52
2023/03/15 00:31:08;;;;;;;7.82;3.90;;;;;;;;;;5063382;28;20802;-54
2023/03/15 00:33:33;;;;;;;9.88;3.63;;;;;;;;;;5063307;28;20392;-54
2023/03/15 00:36:01;;;;;;;4.85;3.60;;;;;;;;;;5063591;28;20016;-54
2023/03/15 00:38:26;;;;;;;8.48;3.78;;;;;;;;;;5063708;28;20078;-55
2023/03/15 00:40:51;;;;;;;8.25;4.40;;;;;;;;;;5063389;28;20028;-52
2023/03/15 00:43:17;;;;;;;6.03;3.50;;;;;;;;;;5063384;28;20098;-52
2023/03/15 00:45:44;;;;;;;4.10;2.97;;;;;;;;;;5062900;28;20299;-53
2023/03/15 00:48:09;;;;;;;6.63;3.20;;;;;;;;;;5063240;28;20067;-55
2023/03/15 00:50:35;;;;;;;6.28;3.17;;;;;;;;;;5063636;28;20056;-56
2023/03/15 00:53:00;;;;;;;5.55;3.00;;;;;;;;;;5061233;28;20029;-55
2023/03/15 00:55:25;;;;;;;5.22;3.08;;;;;;;;;;5060924;28;20029;-51
2023/03/15 00:57:51;;;;;;;5.22;2.75;;;;;;;;;;5062317;28;20100;-53
2023/03/15 01:00:22;;;;;;;5.15;2.67;;;;;;;;;;5065195;28;20032;-52
2023/03/15 01:02:48;;;;;;;5.38;2.80;;;;;;;;;;5065567;28;20020;-54
2023/03/15 01:05:13;;;;;;;8.85;3.40;;;;;;;;;;5065120;28;20020;-54
2023/03/15 01:07:38;;;;;;;6.20;3.17;;;;;;;;;;5065261;28;20052;-50
2023/03/15 01:10:04;;;;;;;7.47;3.10;;;;;;;;;;5065180;28;20523;-52
2023/03/15 01:12:31;;;;;;;5.60;3.05;;;;;;;;;;5065381;28;20035;-52
2023/03/15 01:14:56;;;;;;;5.40;3.22;;;;;;;;;;5064938;28;20021;-54
2023/03/15 01:17:22;;;;;;;5.95;3.03;;;;;;;;;;5064979;28;20544;-53
2023/03/15 01:19:47;;;;;;;5.18;3.38;;;;;;;;;;5065332;28;20033;-54
2023/03/15 01:22:12;;;;;;;6.78;3.78;;;;;;;;;;5066559;28;20036;-53
2023/03/15 01:24:38;;;;;;;7.43;3.92;;;;;;;;;;5067107;28;20017;-54
2023/03/15 01:27:03;;;;;;;6.03;3.63;;;;;;;;;;5066965;28;20032;-54
2023/03/15 01:29:28;;;;;;;6.85;3.78;;;;;;;;;;5066783;28;20021;-54
2023/03/15 01:31:53;;;;;;;7.57;3.53;;;;;;;;;;5066741;28;20020;-53
2023/03/15 01:34:20;;;;;;;4.55;2.88;;;;;;;;;;5067068;28;20431;-54
2023/03/15 01:36:48;;;;;;;4.05;2.85;;;;;;;;;;5066682;28;20063;-53
2023/03/15 01:39:13;;;;;;;7.65;3.38;;;;;;;;;;5066874;28;20043;-56
2023/03/15 01:41:39;;;;;;;5.95;2.83;;;;;;;;;;5063959;28;20468;-54
2023/03/15 01:44:04;;;;;;;4.47;2.97;;;;;;;;;;5066788;28;20031;-54
2023/03/15 01:46:34;;;;;;;4.72;2.90;;;;;;;;;;5066432;28;20045;-51
2023/03/15 01:49:11;;;;;;;4.28;2.30;;;;;;;;;;5066367;28;20146;-54
2023/03/15 01:51:49;;;;;;;3.70;2.63;;;;;;;;;;5066535;28;20612;-50
2023/03/15 01:54:18;;;;;;;3.47;2.30;;;;;;;;;;5066695;28;20098;-56
2023/03/15 01:56:49;;;;;;;3.22;2.45;;;;;;;;;;5066527;28;20067;-53
2023/03/15 01:59:18;;;;;;;2.85;2.13;;;;;;;;;;5066251;28;20035;-54
2023/03/15 02:01:44;;;;;;;5.95;2.17;;;;;;;;;;5066004;28;20040;-52
2023/03/15 02:04:10;;;;;;;3.80;2.28;;;;;;;;;;5066402;28;20073;-53
2023/03/15 02:06:36;;;;;;;3.13;2.13;;;;;;;;;;5062093;28;20040;-51
2023/03/15 02:09:07;;;;;;;3.13;2.00;;;;;;;;;;5063533;28;20017;-53
2023/03/15 02:11:33;;;;;;;3.42;2.40;;;;;;;;;;5063706;28;20529;-52
2023/03/15 02:13:59;;;;;;;2.70;2.00;;;;;;;;;;5063611;28;20169;-51
2023/03/15 02:16:24;;;;;;;3.95;2.00;;;;;;;;;;5062983;28;20020;-52
2023/03/15 02:18:49;;;;;;;3.03;2.22;;;;;;;;;;5063574;28;20383;-50
2023/03/15 02:21:21;;;;;;;3.85;2.08;;;;;;;;;;5063596;28;20040;-52
2023/03/15 02:23:51;;;;;;;3.75;2.05;;;;;;;;;;5063731;28;20021;-53
2023/03/15 02:26:23;;;;;;;6.47;2.30;;;;;;;;;;5063446;28;20389;-50
2023/03/15 02:28:49;;;;;;;3.25;2.28;;;;;;;;;;5063737;28;20028;-54
2023/03/15 02:31:14;;;;;;;3.13;2.05;;;;;;;;;;5063712;28;20024;-53
2023/03/15 02:33:44;;;;;;;3.38;2.20;;;;;;;;;;5063254;28;20028;-54
2023/03/15 02:36:18;;;;;;;8.15;2.13;;;;;;;;;;5064709;28;20020;-54
2023/03/15 02:38:43;;;;;;;2.30;1.90;;;;;;;;;;5065436;28;20471;-54
2023/03/15 02:41:09;;;;;;;3.17;2.10;;;;;;;;;;5065422;28;20028;-52
2023/03/15 02:43:35;;;;;;;2.75;1.88;;;;;;;;;;5065717;28;20463;-52
2023/03/15 02:46:01;;;;;;;3.03;2.00;;;;;;;;;;5065014;28;20057;-51
2023/03/15 02:48:27;;;;;;;4.47;2.00;;;;;;;;;;5065490;28;20025;-51
2023/03/15 02:50:52;;;;;;;3.45;2.10;;;;;;;;;;5065319;28;20111;-54
2023/03/15 02:53:18;;;;;;;2.53;2.00;;;;;;;;;;5065241;28;20043;-53
2023/03/15 02:55:43;;;;;;;6.35;1.90;;;;;;;;;;5065194;28;20043;-54
2023/03/15 02:58:08;;;;;;;3.10;2.15;;;;;;;;;;5065359;28;20067;-54
2023/03/15 03:00:34;;;;;;;2.38;1.80;;;;;;;;;;5065050;28;20033;-54
2023/03/15 03:02:59;;;;;;;3.63;2.03;;;;;;;;;;5065047;28;20028;-55
2023/03/15 03:05:24;;;;;;;3.70;1.88;;;;;;;;;;5065063;28;20029;-53
2023/03/15 03:07:50;;;;;;;3.15;2.10;;;;;;;;;;5064765;28;20401;-54
2023/03/15 03:10:16;;;;;;;4.72;2.15;;;;;;;;;;5079357;28;20033;-55
2023/03/15 03:12:41;;;;;;;3.28;2.13;;;;;;;;;;5064720;28;20017;-56
2023/03/15 03:15:07;;;;;;;3.38;2.28;;;;;;;;;;5064809;28;20396;-54
2023/03/15 03:17:36;;;;;;;6.05;2.30;;;;;;;;;;5062715;28;20039;-55
2023/03/15 03:20:02;;;;;;;3.50;2.00;;;;;;;;;;5060931;28;20016;-55
2023/03/15 03:22:27;;;;;;;3.38;1.95;;;;;;;;;;5061998;28;20021;-51
2023/03/15 03:24:53;;;;;;;3.75;2.17;;;;;;;;;;5062125;28;20681;-51
2023/03/15 03:27:18;;;;;;;4.07;2.20;;;;;;;;;;5061497;28;20032;-52
2023/03/15 03:29:43;;;;;;;2.45;1.75;;;;;;;;;;5061967;28;20035;-51
2023/03/15 03:32:09;;;;;;;2.97;1.92;;;;;;;;;;5062241;28;20031;-53
2023/03/15 03:34:34;;;;;;;3.55;2.00;;;;;;;;;;5062194;28;20112;-52
2023/03/15 03:37:00;;;;;;;4.07;2.10;;;;;;;;;;5062057;28;20463;-49
2023/03/15 03:39:25;;;;;;;4.13;1.88;;;;;;;;;;5062125;28;20029;-53
2023/03/15 03:41:50;;;;;;;2.25;1.95;;;;;;;;;;5063463;28;20725;-51
2023/03/15 03:44:16;;;;;;;3.58;2.20;;;;;;;;;;5063751;28;20456;-50
2023/03/15 03:46:41;;;;;;;2.70;2.00;;;;;;;;;;5064275;28;20079;-54
2023/03/15 03:49:06;;;;;;;2.80;1.85;;;;;;;;;;5064060;28;20163;-53
2023/03/15 03:51:33;;;;;;;2.92;1.92;;;;;;;;;;5063799;28;20032;-53
2023/03/15 03:53:59;;;;;;;3.40;2.10;;;;;;;;;;5064029;28;20033;-52
2023/03/15 03:56:24;;;;;;;2.60;2.00;;;;;;;;;;5064022;28;20023;-50
2023/03/15 03:58:50;;;;;;;4.53;2.25;;;;;;;;;;5063840;28;20016;-54
2023/03/15 04:01:15;;;;;;;3.80;2.38;;;;;;;;;;5063643;28;20150;-54
2023/03/15 04:03:40;;;;;;;5.72;2.30;;;;;;;;;;5063831;28;20024;-53
2023/03/15 04:06:06;;;;;;;3.80;2.42;;;;;;;;;;5060925;28;20036;-53
2023/03/15 04:08:31;;;;;;;2.65;2.00;;;;;;;;;;5064044;28;20663;-52
2023/03/15 04:10:57;;;;;;;3.38;2.10;;;;;;;;;;5063894;28;21112;-53
2023/03/15 04:13:23;;;;;;;3.25;2.30;;;;;;;;;;5063561;28;20733;-50
2023/03/15 04:15:48;;;;;;;2.90;2.60;;;;;;;;;;5063526;28;20036;-52
2023/03/15 04:18:14;;;;;;;2.53;2.30;;;;;;;;;;5063658;28;20024;-54
2023/03/15 04:20:45;;;;;;;3.13;2.40;;;;;;;;;;5062448;28;20146;-51
2023/03/15 04:23:14;;;;;;;3.88;2.20;;;;;;;;;;5061657;28;20059;-50
2023/03/15 04:25:39;;;;;;;3.53;2.50;;;;;;;;;;5061333;28;20112;-52
2023/03/15 04:28:09;;;;;;;4.07;2.45;;;;;;;;;;5061528;28;20419;-51
2023/03/15 04:30:35;;;;;;;4.10;2.53;;;;;;;;;;5059964;28;20123;-54
2023/03/15 04:33:02;;;;;;;3.75;2.80;;;;;;;;;;5061023;28;20773;-54
2023/03/15 04:35:30;;;;;;;4.25;2.15;;;;;;;;;;5061161;28;20043;-54
2023/03/15 04:37:56;;;;;;;4.73;2.20;;;;;;;;;;5061498;28;20032;-53
2023/03/15 04:40:22;;;;;;;4.18;2.63;;;;;;;;;;5061566;28;20667;-55
2023/03/15 04:42:48;;;;;;;4.30;2.75;;;;;;;;;;5061107;28;20017;-54
2023/03/15 04:45:14;;;;;;;5.38;2.75;;;;;;;;;;5061301;28;20063;-51
2023/03/15 04:47:40;;;;;;;4.57;2.45;;;;;;;;;;5062741;28;20024;-54
2023/03/15 04:50:05;;;;;;;4.65;3.13;;;;;;;;;;5063541;28;20016;-52
2023/03/15 04:52:30;;;;;;;4.22;2.80;;;;;;;;;;5063239;28;20020;-52
2023/03/15 04:54:56;;;;;;;4.20;2.45;;;;;;;;;;5063039;28;20110;-53
2023/03/15 04:57:21;;;;;;;4.85;2.58;;;;;;;;;;5063122;28;20032;-53
2023/03/15 04:59:46;;;;;;;4.18;2.70;;;;;;;;;;5062903;28;20021;-54
2023/03/15 05:02:12;;;;;;;3.78;2.58;;;;;;;;;;5063522;28;20031;-49
2023/03/15 05:04:37;;;;;;;6.32;2.83;;;;;;;;;;5063231;28;20025;-54
2023/03/15 05:07:02;;;;;;;4.97;2.78;;;;;;;;;;5063215;28;20052;-54
2023/03/15 05:09:27;;;;;;;6.25;2.97;;;;;;;;;;5063519;28;20027;-55
2023/03/15 05:11:53;;;;;;;4.40;3.17;;;;;;;;;;5063168;28;20021;-55
2023/03/15 05:14:18;;;;;;;3.85;3.03;;;;;;;;;;5063048;28;20921;-54
2023/03/15 05:16:43;;;;;;;4.60;2.83;;;;;;;;;;5063041;28;20032;-53
2023/03/15 05:19:10;;;;;;;4.07;2.92;;;;;;;;;;5062831;28;20116;-52
2023/03/15 05:21:35;;;;;;;5.63;3.00;;;;;;;;;;5063008;28;20035;-53
2023/03/15 05:24:00;;;;;;;4.50;3.15;;;;;;;;;;5062038;28;20107;-54
2023/03/15 05:26:26;;;;;;;6.38;2.80;;;;;;;;;;5062604;28;20035;-52
2023/03/15 05:28:51;;;;;;;4.80;2.97;;;;;;;;;;5060692;28;20025;-51
2023/03/15 05:31:16;;;;;;;4.55;3.10;;;;;;;;;;5060760;28;20032;-55
2023/03/15 05:33:45;;;;;;;4.07;3.05;;;;;;;;;;5060652;28;20028;-49
2023/03/15 05:36:13;;;;;;;3.47;2.33;;;;;;;;;;5060704;28;20078;-52
2023/03/15 05:38:38;;;;;;;6.00;3.03;;;;;;;;;;5059077;28;20571;-54
2023/03/15 05:41:05;;;;;;;4.72;3.05;;;;;;;;;;5060766;28;20024;-53
2023/03/15 05:43:30;;;;;;;4.55;3.22;;;;;;;;;;5061113;28;20017;-52
2023/03/15 05:45:55;;;;;;;5.90;3.08;;;;;;;;;;5064272;28;20064;-50
2023/03/15 05:48:21;;;;;;;4.00;2.90;;;;;;;;;;5064035;28;20033;-51
2023/03/15 05:50:46;;;;;;;7.40;3.10;;;;;;;;;;5063053;28;20021;-55
2023/03/15 05:53:11;;;;;;;3.88;2.70;;;;;;;;;;5064825;28;20090;-53
2023/03/15 05:55:37;;;;;;;3.13;2.67;;;;;;;;;;5066082;28;20027;-53
2023/03/15 05:58:02;;;;;;;4.85;2.60;;;;;;;;;;5066288;28;20094;-53
2023/03/15 06:00:28;;;;;;;4.07;2.80;;;;;;;;;;5066030;28;20056;-53
2023/03/15 06:02:53;;;;;;;4.10;2.95;;;;;;;;;;5066151;28;20687;-54
2023/03/15 06:05:18;;;;;;;5.18;2.78;;;;;;;;;;5066053;28;20540;-55
2023/03/15 06:07:45;;;;;;;4.80;2.42;;;;;;;;;;5066040;28;20031;-55
2023/03/15 06:10:10;;;;;;;3.33;2.60;;;;;;;;;;5066151;28;20112;-52
2023/03/15 06:12:35;;;;;;;3.45;2.58;;;;;;;;;;5066023;28;20103;-53
2023/03/15 06:15:01;;;;;;;4.78;2.47;;;;;;;;;;5065716;28;20135;-52
2023/03/15 06:17:26;;;;;;;3.10;2.55;;;;;;;;;;5065878;28;20031;-54
2023/03/15 06:19:51;;;;;;;4.03;2.55;;;;;;;;;;5065721;28;20123;-53
2023/03/15 06:22:19;;;;;;;3.42;2.40;;;;;;;;;;5065676;28;20066;-55
2023/03/15 06:24:44;;;;;;;4.38;2.60;;;;;;;;;;5063349;28;20036;-52
2023/03/15 06:27:10;;;;;;;4.80;2.88;;;;;;;;;;5065532;28;20482;-49
2023/03/15 06:29:35;;;;;;;4.53;2.13;;;;;;;;;;5065579;28;20021;-53
2023/03/15 06:32:00;;;;;;;4.78;2.67;;;;;;;;;;5065501;28;20024;-52
2023/03/15 06:34:25;;;;;;;5.50;2.75;;;;;;;;;;5065487;28;20035;-50
2023/03/15 06:36:54;;;;;;;4.65;2.78;;;;;;;;;;5063010;28;20536;-54
2023/03/15 06:39:20;;;;;;;3.03;2.35;;;;;;;;;;5065417;28;20059;-54
2023/03/15 06:41:45;;;;;;;4.30;2.08;;;;;;;;;;5065556;28;20068;-48
2023/03/15 06:44:10;;;;;;;4.28;2.42;;;;;;;;;;5065375;28;20460;-50
2023/03/15 06:46:36;;;;;;;3.55;2.45;;;;;;;;;;5065196;28;20052;-54
2023/03/15 06:49:02;;;;;;;5.22;2.60;;;;;;;;;;5065373;28;20027;-51
2023/03/15 06:51:27;;;;;;;3.97;2.40;;;;;;;;;;5065311;28;20032;-53
2023/03/15 06:53:52;;;;;;;7.85;3.88;;;;;;;;;;5065308;28;20032;-54
2023/03/15 06:56:18;;;;;;;6.93;3.95;;;;;;;;;;5062480;28;20468;-52
2023/03/15 06:58:43;;;;;;;7.07;3.60;;;;;;;;;;5065242;28;20041;-52
2023/03/15 07:01:12;;;;;;;4.25;2.60;;;;;;;;;;5064521;28;20160;-52
2023/03/15 07:03:38;;;;;;;5.63;2.40;;;;;;;;;;5065032;28;20039;-50
2023/03/15 07:06:03;;;;;;;5.13;2.42;;;;;;;;;;5065107;28;20032;-54
2023/03/15 07:08:29;;;;;;;6.43;2.85;;;;;;;;;;5065178;28;20533;-54
2023/03/15 07:10:54;;;;;;;5.88;2.17;;;;;;;;;;5064917;28;20016;-52
2023/03/15 07:13:19;;;;;;;3.47;2.42;;;;;;;;;;5064721;28;20450;-54
2023/03/15 07:15:46;;;;;;;4.35;2.47;;;;;;;;;;5064676;28;20086;-53
2023/03/15 07:18:11;;;;;;;3.22;2.15;;;;;;;;;;5064666;28;20051;-49
2023/03/15 07:20:37;;;;;;;3.17;2.40;;;;;;;;;;5064058;28;20024;-52
2023/03/15 07:23:02;;;;;;;4.35;2.95;;;;;;;;;;5062063;28;20032;-54
2023/03/15 07:25:27;;;;;;;4.95;2.53;;;;;;;;;;5064247;28;20024;-54
2023/03/15 07:27:52;;;;;;;4.57;3.00;;;;;;;;;;5064464;28;20016;-53
2023/03/15 07:30:19;;;;;;;4.50;2.60;;;;;;;;;;5064495;28;20423;-51
2023/03/15 07:32:44;;;;;;;4.20;2.80;;;;;;;;;;5064278;28;20028;-55
2023/03/15 07:35:10;;;;;;;5.07;2.95;;;;;;;;;;5064159;28;20039;-53
2023/03/15 07:37:35;;;;;;;3.42;2.55;;;;;;;;;;5064149;28;20020;-51
2023/03/15 07:40:08;;;;;;;4.90;3.15;;;;;;;;;;5064070;28;20109;-53
2023/03/15 07:42:37;;;;;;;3.97;2.95;;;;;;;;;;5064247;28;20047;-51
2023/03/15 07:45:03;;;;;;;4.20;2.80;;;;;;;;;;5063749;28;20049;-52
2023/03/15 07:47:29;;;;;;;6.82;3.70;;;;;;;;;;5062742;28;20040;-50
2023/03/15 07:49:54;;;;;;;5.40;3.63;;;;;;;;;;5063992;28;20052;-53
2023/03/15 07:52:21;;;;;;;8.88;4.13;;;;;;;;;;5064079;28;20059;-52
2023/03/15 07:54:46;;;;;;;8.25;4.30;;;;;;;;;;5063918;28;20025;-52
2023/03/15 07:57:12;;;;;;;10.63;5.82;;;;;;;;;;5063950;28;20679;-52
2023/03/15 07:59:37;;;;;;;9.57;5.15;;;;;;;;;;5063664;28;20078;-52
2023/03/15 08:02:02;;;;;;;11.77;5.70;;;;;;;;;;5063696;28;20033;-54
2023/03/15 08:04:27;;;;;;;10.50;5.72;;;;;;;;;;5063836;28;20031;-49
2023/03/15 08:06:53;;;;;;;13.07;6.53;;;;;;;;;;5063386;28;20082;-55
2023/03/15 08:09:18;;;;;;;14.93;5.85;;;;;;;;;;5063837;28;20077;-53
2023/03/15 08:11:43;;;;;;;12.68;6.18;;;;;;;;;;5063573;28;20036;-58
2023/03/15 08:14:09;;;;;;;15.75;8.23;;;;;;;;;;5063866;28;20024;-53
2023/03/15 08:16:34;;;;;;;16.38;8.10;;;;;;;;;;5063902;28;20426;-52
2023/03/15 08:18:59;;;;;;;14.52;6.93;;;;;;;;;;5063347;28;20067;-54
2023/03/15 08:21:24;;;;;;;12.48;6.70;;;;;;;;;;5063240;28;20062;-53
2023/03/15 08:23:50;;;;;;;12.05;6.95;;;;;;;;;;5063574;28;20047;-54
2023/03/15 08:26:15;;;;;;;8.80;5.70;;;;;;;;;;5063726;28;20024;-53
2023/03/15 08:28:40;;;;;;;10.73;6.20;;;;;;;;;;5063406;28;20035;-53
2023/03/15 08:31:09;;;;;;;9.15;6.00;;;;;;;;;;5062357;28;20427;-52
2023/03/15 08:33:34;;;;;;;14.17;6.90;;;;;;;;;;5063600;28;20032;-53
2023/03/15 08:36:00;;;;;;;12.93;6.45;;;;;;;;;;5063394;28;20593;-51
2023/03/15 08:38:25;;;;;;;8.63;5.72;;;;;;;;;;5063676;28;20450;-53
2023/03/15 08:40:55;;;;;;;9.98;5.95;;;;;;;;;;5061895;28;20033;-50
2023/03/15 08:43:20;;;;;;;10.25;6.20;;;;;;;;;;5063333;28;20060;-51
2023/03/15 08:45:46;;;;;;;10.70;6.50;;;;;;;;;;5063082;28;20742;-53
2023/03/15 08:48:13;;;;;;;9.95;6.00;;;;;;;;;;5063227;28;20068;-53
2023/03/15 08:50:38;;;;;;;9.73;6.35;;;;;;;;;;5063304;28;20119;-51
2023/03/15 08:53:04;;;;;;;13.18;6.85;;;;;;;;;;5062850;28;20091;-50
2023/03/15 08:55:29;;;;;;;10.32;6.30;;;;;;;;;;5063061;28;20074;-50
2023/03/15 08:57:54;;;;;;;10.55;6.45;;;;;;;;;;5063055;28;20024;-49
2023/03/15 09:00:21;;;;;;;10.30;6.28;;;;;;;;;;5063106;28;20028;-55
2023/03/15 09:02:47;;;;;;;11.80;7.03;;;;;;;;;;5063628;28;20024;-51
2023/03/15 09:05:14;;;;;;;12.13;6.75;;;;;;;;;;5063323;28;20429;-54
2023/03/15 09:07:41;;;;;;;10.82;7.05;;;;;;;;;;5063210;28;20016;-54
2023/03/15 09:10:07;;;;;;;11.38;6.88;;;;;;;;;;5063327;28;20040;-51
2023/03/15 09:12:33;;;;;;;10.15;6.22;;;;;;;;;;5063077;28;20048;-51
2023/03/15 09:14:58;;;;;;;10.50;6.47;;;;;;;;;;5063224;28;20036;-51
2023/03/15 09:17:23;;;;;;;15.20;7.43;;;;;;;;;;5063185;28;20536;-54
2023/03/15 09:19:48;;;;;;;13.45;7.72;;;;;;;;;;5065370;28;20029;-50
2023/03/15 09:22:14;;;;;;;15.10;6.90;;;;;;;;;;5066706;28;20029;-54
2023/03/15 09:24:39;;;;;;;9.70;6.63;;;;;;;;;;5066951;28;20032;-53
2023/03/15 09:27:04;;;;;;;10.57;6.80;;;;;;;;;;5066608;28;20467;-52
2023/03/15 09:29:30;;;;;;;9.65;6.50;;;;;;;;;;5066890;28;20029;-51
2023/03/15 09:31:56;;;;;;;10.25;6.47;;;;;;;;;;5066761;28;20067;-52
2023/03/15 09:34:21;;;;;;;11.52;6.32;;;;;;;;;;5066846;28;20048;-54
2023/03/15 09:36:51;;;;;;;8.90;6.07;;;;;;;;;;5066823;28;20056;-51
2023/03/15 09:39:17;;;;;;;11.63;5.90;;;;;;;;;;5066579;28;20044;-54
2023/03/15 09:41:53;;;;;;;11.85;6.63;;;;;;;;;;5064395;28;20083;-54
2023/03/15 09:44:54;;;;;;;12.30;5.93;;;;;;;;;;5064541;28;20021;-49
2023/03/15 09:47:22;;;;;;;9.17;5.67;;;;;;;;;;5043388;28;20130;-49
2023/03/15 09:50:00;;;;;;;10.10;5.30;;;;;;;;;;5043530;28;20041;-51
2023/03/15 09:52:31;;;;;;;13.00;5.38;;;;;;;;;;5043635;28;20033;-51
2023/03/15 09:54:58;;;;;;;10.50;5.88;;;;;;;;;;5043179;28;20025;-48
2023/03/15 09:57:30;;;;;;;10.85;5.60;;;;;;;;;;5043588;28;20024;-49
2023/03/15 09:59:56;;;;;;;9.07;5.35;;;;;;;;;;5043325;28;20020;-53
2023/03/15 10:02:27;;;;;;;10.60;4.78;;;;;;;;;;5043223;28;20037;-50
2023/03/15 10:04:56;;;;;;;13.15;5.03;;;;;;;;;;5043288;28;20056;-52
2023/03/15 10:07:21;;;;;;;;;;;;;;;;;;5043588;28;20060;-53
2023/03/15 10:09:46;;;;;;;6.50;4.32;;;;;;;;;;5043132;28;20000;-51
2023/03/15 10:12:14;;;;;;;6.97;4.63;;;;;;;;;;5043054;28;20028;-50
2023/03/15 10:14:39;;;;;;;11.88;5.22;;;;;;;;;;5042910;28;20033;-51
2023/03/15 10:17:11;;;;;;;12.65;4.93;;;;;;;;;;5043100;28;20036;-52
2023/03/15 10:19:50;;;;;;;7.18;4.55;;;;;;;;;;5042712;28;20051;-50
2023/03/15 10:22:44;;;;;;;7.22;4.40;;;;;;;;;;5062643;28;20120;-49
2023/03/15 10:25:25;;;;;;;8.25;4.53;;;;;;;;;;5042710;28;20045;-50
2023/03/15 10:27:56;;;;;;;7.68;5.15;;;;;;;;;;5042831;28;20025;-50
2023/03/15 10:30:23;;;;;;;14.13;5.43;;;;;;;;;;5042432;28;20051;-51
2023/03/15 10:32:51;;;;;;;9.15;4.78;;;;;;;;;;5042896;28;20029;-50
2023/03/15 10:35:18;;;;;;;9.02;4.75;;;;;;;;;;5042848;28;20040;-50
2023/03/15 10:37:44;;;;;;;12.90;4.57;;;;;;;;;;5042574;28;20051;-52
2023/03/15 10:40:14;;;;;;;11.48;4.82;;;;;;;;;;5042622;28;20817;-50
2023/03/15 10:42:40;;;;;;;10.05;4.85;;;;;;;;;;5042635;28;20123;-50
2023/03/15 10:45:18;;;;;;;9.23;5.28;;;;;;;;;;5042316;28;20087;-54
2023/03/15 10:47:44;;;;;;;9.25;4.75;;;;;;;;;;5042450;28;20094;-50
2023/03/15 10:50:15;;;;;;;9.90;5.35;;;;;;;;;;5042337;28;20052;-51
2023/03/15 10:52:42;;;;;;;15.43;5.18;;;;;;;;;;5042337;28;20548;-53
2023/03/15 10:55:10;;;;;;;7.28;4.22;;;;;;;;;;5042182;28;20746;-50
2023/03/15 10:57:38;;;;;;;6.72;3.67;;;;;;;;;;5042345;28;20036;-51
2023/03/15 11:00:16;;;;;;;7.85;4.00;;;;;;;;;;5042266;28;20036;-49
2023/03/15 11:02:47;;;;;;;5.93;2.80;;;;;;;;;;5063830;28;20394;-52
2023/03/15 11:05:15;;;;;;;5.72;2.75;;;;;;;;;;5045458;28;20059;-49
2023/03/15 11:07:54;;;;;;;5.43;2.35;;;;;;;;;;5064797;28;20020;-52
2023/03/15 11:10:20;;;;;;;5.07;1.77;;;;;;;;;;5065079;28;21140;-49
2023/03/15 11:12:46;;;;;;;2.40;1.73;;;;;;;;;;5064967;28;20099;-49
2023/03/15 11:15:14;;;;;;;2.85;1.60;;;;;;;;;;5064883;28;20103;-51
2023/03/15 11:17:47;;;;;;;2.55;1.38;;;;;;;;;;5064663;28;20028;-51
2023/03/15 11:20:25;;;;;;;3.30;1.70;;;;;;;;;;5064416;28;20357;-51
2023/03/15 11:22:50;;;;;;;3.50;1.63;;;;;;;;;;5064740;28;20368;-48
2023/03/15 11:25:16;;;;;;;3.40;1.77;;;;;;;;;;5064432;28;20085;-51
2023/03/15 11:27:42;;;;;;;3.30;1.60;;;;;;;;;;5064443;28;20691;-51
2023/03/15 11:30:14;;;;;;;4.63;2.10;;;;;;;;;;5064502;28;20473;-50
2023/03/15 11:32:40;;;;;;;3.13;1.60;;;;;;;;;;5064648;28;20036;-50
2023/03/15 11:35:07;;;;;;;2.85;1.70;;;;;;;;;;5064659;28;20028;-50
2023/03/15 11:37:40;;;;;;;4.50;1.67;;;;;;;;;;5064510;28;20025;-49
2023/03/15 11:40:10;;;;;;;3.45;1.65;;;;;;;;;;5061670;28;20086;-48
2023/03/15 11:42:39;;;;;;;3.10;1.75;;;;;;;;;;5063662;28;20032;-50
2023/03/15 11:45:11;;;;;;;2.75;1.45;;;;;;;;;;5064062;28;20093;-49
2023/03/15 11:47:46;;;;;;;3.33;1.38;;;;;;;;;;5064308;28;20089;-48
2023/03/15 11:50:12;;;;;;;3.50;1.10;;;;;;;;;;5064311;28;20016;-51
2023/03/15 11:52:38;;;;;;;2.45;1.42;;;;;;;;;;5064100;28;20059;-51
2023/03/15 11:55:04;;;;;;;3.63;1.23;;;;;;;;;;5064094;28;20082;-49
2023/03/15 11:57:46;;;;;;;2.17;1.20;;;;;;;;;;5064124;28;20020;-52
2023/03/15 12:00:16;;;;;;;3.28;1.33;;;;;;;;;;5063737;28;20444;-53
2023/03/15 12:02:58;;;;;;;3.67;1.20;;;;;;;;;;5063842;28;20464;-51
2023/03/15 12:05:41;;;;;;;2.28;1.05;;;;;;;;;;5063893;28;20029;-51
2023/03/15 12:08:20;;;;;;;3.97;1.27;;;;;;;;;;5063602;28;20032;-48
2023/03/15 12:10:45;;;;;;;3.33;1.08;;;;;;;;;;5064243;28;20029;-50
2023/03/15 12:13:25;;;;;;;2.78;1.17;;;;;;;;;;5078175;28;20044;-50
2023/03/15 12:15:51;;;;;;;1.45;0.90;;;;;;;;;;5063705;28;20056;-52
2023/03/15 12:18:17;;;;;;;2.05;1.17;;;;;;;;;;5063776;28;20075;-51
2023/03/15 12:21:02;;;;;;;3.13;1.30;;;;;;;;;;5060646;28;20127;-51
2023/03/15 12:23:31;;;;;;;4.57;1.25;;;;;;;;;;5063893;28;20021;-49
2023/03/15 12:26:02;;;;;;;3.08;1.48;;;;;;;;;;5063750;28;20024;-49
2023/03/15 12:28:38;;;;;;;1.80;1.25;;;;;;;;;;5063572;28;20068;-51
2023/03/15 12:31:06;;;;;;;4.40;1.42;;;;;;;;;;5063639;28;20024;-49
2023/03/15 12:33:33;;;;;;;3.20;1.33;;;;;;;;;;5063515;28;20452;-51
2023/03/15 12:36:00;;;;;;;4.05;1.30;;;;;;;;;;5063489;28;20767;-50
2023/03/15 12:38:31;;;;;;;1.38;0.90;;;;;;;;;;5060855;28;20508;-54
2023/03/15 12:40:56;;;;;;;1.48;0.95;;;;;;;;;;5063352;28;20112;-49
2023/03/15 12:43:35;;;;;;;6.55;1.73;;;;;;;;;;5063590;28;20644;-50
2023/03/15 12:46:00;;;;;;;1.63;1.10;;;;;;;;;;5063278;28;20052;-48
2023/03/15 12:48:27;;;;;;;3.10;1.15;;;;;;;;;;5063264;28;20055;-50
2023/03/15 12:50:54;;;;;;;2.63;1.17;;;;;;;;;;5063322;28;20029;-48
2023/03/15 12:53:21;;;;;;;2.80;1.10;;;;;;;;;;5067081;28;20902;-49
2023/03/15 12:55:46;;;;;;;2.42;1.33;;;;;;;;;;5070168;28;20013;-53
2023/03/15 12:58:12;;;;;;;2.83;1.13;;;;;;;;;;5069971;28;20364;-50
2023/03/15 13:00:40;;;;;;;2.40;1.08;;;;;;;;;;5069966;28;20021;-52
2023/03/15 13:03:15;;;;;;;5.35;1.27;;;;;;;;;;5070187;28;20023;-51
2023/03/15 13:05:51;;;;;;;2.60;1.33;;;;;;;;;;5050878;28;20086;-48
2023/03/15 13:08:20;;;;;;;2.85;1.30;;;;;;;;;;5069973;28;20025;-53
2023/03/15 13:11:00;;;;;;;1.85;1.15;;;;;;;;;;5069723;28;20028;-51
2023/03/15 13:13:29;;;;;;;3.88;1.50;;;;;;;;;;5069912;28;20021;-48
2023/03/15 13:16:14;;;;;;;1.58;1.08;;;;;;;;;;5069942;28;20519;-52
2023/03/15 13:18:51;;;;;;;2.65;1.50;;;;;;;;;;5068373;28;20449;-54
2023/03/15 13:21:19;;;;;;;1.90;1.10;;;;;;;;;;5069589;28;20112;-50
2023/03/15 13:23:49;;;;;;;2.25;1.30;;;;;;;;;;5069555;28;20078;-49
2023/03/15 13:26:23;;;;;;;2.20;1.30;;;;;;;;;;5069683;28;20078;-49
2023/03/15 13:28:53;;;;;;;3.85;1.60;;;;;;;;;;5069594;28;20068;-52
2023/03/15 13:31:18;;;;;;;4.95;1.40;;;;;;;;;;5069658;28;20047;-49
2023/03/15 13:33:47;;;;;;;2.88;1.35;;;;;;;;;;5069547;28;20107;-50
2023/03/15 13:36:14;;;;;;;4.03;1.63;;;;;;;;;;5069687;28;20025;-50
2023/03/15 13:38:47;;;;;;;3.05;1.40;;;;;;;;;;5069705;28;20028;-51
2023/03/15 13:41:22;;;;;;;3.22;1.60;;;;;;;;;;5069332;28;20021;-51
2023/03/15 13:43:50;;;;;;;3.60;1.70;;;;;;;;;;5069810;28;20021;-52
2023/03/15 13:46:16;;;;;;;2.75;1.50;;;;;;;;;;5069530;28;20045;-51
2023/03/15 13:48:42;;;;;;;2.42;1.20;;;;;;;;;;5069574;28;20056;-50
2023/03/15 13:51:08;;;;;;;1.95;1.25;;;;;;;;;;5069567;28;20052;-52
2023/03/15 13:53:34;;;;;;;1.92;1.10;;;;;;;;;;5066734;28;20409;-53
2023/03/15 13:56:00;;;;;;;4.68;1.45;;;;;;;;;;5069564;28;20341;-51
2023/03/15 13:58:25;;;;;;;1.85;1.38;;;;;;;;;;5069811;28;20593;-48
2023/03/15 14:00:55;;;;;;;1.70;1.13;;;;;;;;;;5069412;28;20131;-51
2023/03/15 14:03:21;;;;;;;3.10;1.40;;;;;;;;;;5069333;28;20369;-53
2023/03/15 14:05:47;;;;;;;2.67;1.52;;;;;;;;;;5065579;28;20348;-50
2023/03/15 14:08:21;;;;;;;2.72;1.20;;;;;;;;;;5064918;28;20447;-48
2023/03/15 14:10:57;;;;;;;2.45;1.70;;;;;;;;;;5066413;28;20044;-51
2023/03/15 14:13:26;;;;;;;1.77;1.10;;;;;;;;;;5066147;28;20027;-50
2023/03/15 14:15:51;;;;;;;;;;;;;;;;;;5066502;28;20020;-48
2023/03/15 14:18:20;;;;;;;3.30;2.10;;;;;;;;;;5066141;28;19911;-51
2023/03/15 14:20:46;;;;;;;;;;;;;;;;;;5066229;28;20036;-50
2023/03/15 14:23:13;;;;;;;3.25;1.70;;;;;;;;;;5066045;28;20587;-51
2023/03/15 14:25:39;;;;;;;4.60;2.13;;;;;;;;;;5066073;28;20017;-52
2023/03/15 14:28:05;;;;;;;3.25;1.80;;;;;;;;;;5065741;28;20135;-51
2023/03/15 14:30:33;;;;;;;3.08;1.90;;;;;;;;;;5065719;28;20062;-53
2023/03/15 14:33:00;;;;;;;4.80;2.40;;;;;;;;;;5065746;28;20038;-53
2023/03/15 14:35:35;;;;;;;5.85;2.40;;;;;;;;;;5065501;28;20042;-52
2023/03/15 14:38:00;;;;;;;3.63;2.10;;;;;;;;;;5065653;28;20013;-54
2023/03/15 14:40:33;;;;;;;3.78;1.92;;;;;;;;;;5065685;28;20066;-51
2023/03/15 14:42:59;;;;;;;4.45;2.33;;;;;;;;;;5065427;28;20659;-49
2023/03/15 14:45:26;;;;;;;3.92;2.20;;;;;;;;;;5065649;28;20404;-53